Time;durP1;ratioP1;P1;durP2;ratioP2;P2;SDS_P1;SDS_P2;PMS_P1;PMS_P2;Temp;Humidity;BMP_temperature;BMP_pressure;BME280_temperature;BME280_humidity;BME280_pressure;Samples;Min_cycle;Max_cycle;Signal;HPM_P1;HPM_P2
2024/04/21 00:01:22;;;;;;;4.82;1.95;;;;;;;31.01;79.15;100828.19;5395497;26;67779;-30
2024/04/21 00:03:53;;;;;;;1.87;1.77;;;;;;;31.01;78.28;100822.78;5387739;26;64749;-30
2024/04/21 00:06:24;;;;;;;2.10;1.90;;;;;;;31.02;78.32;100824.41;5385019;26;69298;-31
2024/04/21 00:08:55;;;;;;;2.10;2.00;;;;;;;31.07;78.44;100835.41;5399059;26;65301;-33
2024/04/21 00:11:27;;;;;;;2.40;1.83;;;;;;;31.12;78.16;100848.28;5393194;26;69421;-29
2024/04/21 00:13:58;;;;;;;2.92;2.00;;;;;;;31.13;79.47;100847.25;5403368;26;65922;-31
2024/04/21 00:16:29;;;;;;;3.23;1.97;;;;;;;31.13;79.40;100842.66;5385728;26;68775;-30
2024/04/21 00:19:00;;;;;;;1.97;1.77;;;;;;;31.20;79.55;100849.88;5385507;26;64995;-32
2024/04/21 00:21:33;;;;;;;;;;;;;;;31.09;81.97;100855.00;5392298;26;68253;-30
2024/04/21 00:24:04;;;;;;;4.15;1.85;;;;;;;31.17;80.55;100853.84;5387051;26;64002;-31
2024/04/21 00:26:34;;;;;;;2.20;2.00;;;;;;;31.22;78.93;100858.63;5397852;26;68703;-31
2024/04/21 00:29:07;;;;;;;1.90;1.80;;;;;;;31.27;79.83;100856.06;5399314;26;65702;-30
2024/04/21 00:31:38;;;;;;;3.13;2.03;;;;;;;31.24;80.10;100859.25;5393522;26;68926;-31
2024/04/21 00:34:09;;;;;;;3.47;2.05;;;;;;;31.29;79.20;100867.53;5402134;26;66316;-31
2024/04/21 00:36:41;;;;;;;2.07;1.93;;;;;;;31.31;78.99;100870.81;5390961;26;68675;-30
2024/04/21 00:39:12;;;;;;;6.72;2.25;;;;;;;31.34;80.03;100870.38;5386971;26;65289;-30
2024/04/21 00:41:43;;;;;;;11.00;3.72;;;;;;;31.35;82.53;100877.47;5382354;26;69303;-31
2024/04/21 00:44:14;;;;;;;17.30;4.32;;;;;;;31.41;84.31;100883.91;5386958;26;64296;-32
2024/04/21 00:46:45;;;;;;;16.38;4.00;;;;;;;31.37;87.02;100886.22;5384106;26;69429;-33
2024/04/21 00:49:17;;;;;;;12.05;4.47;;;;;;;31.41;87.20;100887.44;5384927;26;64456;-30
2024/04/21 00:51:48;;;;;;;17.25;4.32;;;;;;;31.39;87.85;100884.13;5393528;26;67715;-31
2024/04/21 00:54:19;;;;;;;11.37;3.80;;;;;;;31.43;88.97;100890.78;5398360;26;64087;-31
2024/04/21 00:56:52;;;;;;;8.33;4.47;;;;;;;31.48;86.53;100888.22;5397006;26;68204;-30
2024/04/21 00:59:23;;;;;;;4.93;4.43;;;;;;;31.54;88.43;100891.91;5402862;26;64504;-31
2024/04/21 01:01:55;;;;;;;5.40;4.33;;;;;;;31.53;86.99;100891.06;5404050;26;68907;-30
2024/04/21 01:04:26;;;;;;;6.97;4.00;;;;;;;31.58;87.14;100879.56;5399746;26;65120;-31
2024/04/21 01:06:58;;;;;;;4.78;3.35;;;;;;;31.68;87.71;100889.84;5386161;26;67598;-30
2024/04/21 01:09:28;;;;;;;8.15;4.15;;;;;;;31.69;87.27;100896.97;5392675;26;64153;-31
2024/04/21 01:12:00;;;;;;;7.37;4.20;;;;;;;31.70;87.53;100901.31;5399109;26;69655;-30
2024/04/21 01:14:31;;;;;;;4.65;3.55;;;;;;;31.70;86.78;100898.59;5386198;26;65029;-31
2024/04/21 01:17:02;;;;;;;5.90;3.50;;;;;;;31.68;88.16;100900.72;5397965;26;69066;-30
2024/04/21 01:19:33;;;;;;;6.60;3.92;;;;;;;31.69;87.02;100905.91;5390505;26;64749;-31
2024/04/21 01:22:05;;;;;;;6.45;5.03;;;;;;;31.74;86.65;100902.53;5391635;26;68693;-34
2024/04/21 01:24:36;;;;;;;9.47;4.40;;;;;;;31.78;86.75;100899.13;5403612;26;64509;-30
2024/04/21 01:27:08;;;;;;;4.43;4.10;;;;;;;31.91;85.47;100911.75;5408576;26;67729;-30
2024/04/21 01:29:39;;;;;;;9.98;4.18;;;;;;;31.97;84.85;100912.72;5397317;26;63304;-31
2024/04/21 01:32:23;;;;;;;4.85;4.35;;;;;;;32.01;87.18;100906.63;5406602;26;68474;-31
2024/04/21 01:34:54;;;;;;;4.97;4.55;;;;;;;32.09;84.61;100915.50;5393667;26;65792;-32
2024/04/21 01:37:26;;;;;;;4.88;4.45;;;;;;;32.17;85.78;100918.72;5379579;26;69540;-30
2024/04/21 01:39:57;;;;;;;5.18;4.68;;;;;;;32.17;83.98;100917.91;5381976;26;64451;-31
2024/04/21 01:42:29;;;;;;;11.20;4.82;;;;;;;32.22;83.82;100920.78;5407841;26;68697;-30
2024/04/21 01:45:00;;;;;;;5.90;4.55;;;;;;;32.24;83.60;100924.09;5396860;26;64937;-30
2024/04/21 01:47:31;;;;;;;5.43;3.97;;;;;;;32.27;83.15;100919.03;5391925;26;69248;-30
2024/04/21 01:50:03;;;;;;;5.72;4.82;;;;;;;32.30;84.53;100920.47;5387614;26;64396;-30
2024/04/21 01:52:34;;;;;;;4.90;4.50;;;;;;;32.36;83.24;100924.13;5392143;26;68079;-30
2024/04/21 01:55:06;;;;;;;4.88;4.53;;;;;;;32.35;84.13;100930.63;5391675;26;64894;-31
2024/04/21 01:57:37;;;;;;;5.53;4.13;;;;;;;32.40;83.85;100931.59;5405036;26;69122;-30
2024/04/21 02:00:08;;;;;;;5.13;3.67;;;;;;;32.43;83.94;100933.00;5386574;26;64619;-30
2024/04/21 02:02:42;;;;;;;4.57;4.25;;;;;;;32.49;83.23;100927.53;5379177;26;68837;-31
2024/04/21 02:05:14;;;;;;;4.82;4.38;;;;;;;32.52;82.46;100926.25;5377229;26;65545;-32
2024/04/21 02:07:45;;;;;;;7.50;4.07;;;;;;;32.55;83.67;100931.22;5385284;26;68655;-31
2024/04/21 02:10:17;;;;;;;5.82;3.95;;;;;;;32.61;83.39;100924.03;5399045;26;63862;-34
2024/04/21 02:12:48;;;;;;;4.43;4.00;;;;;;;32.60;83.54;100925.94;5380402;26;69380;-32
2024/04/21 02:15:19;;;;;;;;;;;;;;;32.57;84.17;100922.81;5390659;26;63617;-31
2024/04/21 02:17:51;;;;;;;4.30;3.55;;;;;;;32.66;83.26;100921.47;5388524;26;69027;-31
2024/04/21 02:20:22;;;;;;;6.70;3.95;;;;;;;32.71;83.30;100924.31;5393815;26;63686;-30
2024/04/21 02:22:54;;;;;;;4.28;3.83;;;;;;;32.73;83.18;100922.16;5385091;26;68639;-31
2024/04/21 02:25:26;;;;;;;4.80;4.30;;;;;;;32.77;81.80;100917.94;5389013;26;65822;-30
2024/04/21 02:27:57;;;;;;;4.13;3.72;;;;;;;32.75;82.34;100913.81;5390377;26;68625;-31
2024/04/21 02:30:28;;;;;;;3.67;3.30;;;;;;;32.84;83.13;100924.09;5388051;26;64328;-30
2024/04/21 02:33:01;;;;;;;5.55;3.65;;;;;;;32.80;83.78;100895.75;5386872;26;68348;-33
2024/04/21 02:35:34;;;;;;;3.35;3.05;;;;;;;32.80;83.90;100906.59;5387920;26;65418;-34
2024/04/21 02:38:05;;;;;;;6.57;3.17;;;;;;;32.89;83.31;100905.19;5386384;26;68829;-31
2024/04/21 02:40:37;;;;;;;4.75;3.28;;;;;;;32.89;83.63;100897.06;5394247;26;65738;-31
2024/04/21 02:43:08;;;;;;;5.17;3.20;;;;;;;32.90;82.58;100903.31;5389524;26;68694;-31
2024/04/21 02:45:40;;;;;;;6.85;3.42;;;;;;;32.94;82.77;100899.06;5376190;26;64907;-33
2024/04/21 02:48:11;;;;;;;4.90;2.90;;;;;;;32.96;83.12;100906.97;5384710;26;67593;-30
2024/04/21 02:50:42;;;;;;;9.18;3.55;;;;;;;33.00;81.97;100894.63;5390362;26;65241;-30
2024/04/21 02:53:13;;;;;;;4.93;3.28;;;;;;;33.06;82.80;100904.53;5386501;26;68334;-32
2024/04/21 02:55:45;;;;;;;4.30;3.60;;;;;;;33.11;82.51;100896.53;5381986;26;64777;-31
2024/04/21 02:58:16;;;;;;;5.53;2.95;;;;;;;33.10;82.99;100887.53;5383618;26;68901;-31
2024/04/21 03:00:47;;;;;;;6.22;3.35;;;;;;;33.16;81.89;100893.94;5378578;26;64237;-31
2024/04/21 03:03:18;;;;;;;4.50;4.10;;;;;;;33.18;82.92;100889.06;5382267;26;68662;-32
2024/04/21 03:05:59;;;;;;;5.13;4.43;;;;;;;33.19;83.07;100888.03;5386848;26;65291;-31
2024/04/21 03:08:30;;;;;;;4.45;4.05;;;;;;;33.30;82.52;100889.91;5384466;26;68953;-32
2024/04/21 03:11:01;;;;;;;6.25;4.28;;;;;;;33.31;81.40;100877.97;5383114;26;64056;-34
2024/04/21 03:13:33;;;;;;;5.05;4.55;;;;;;;33.27;82.14;100868.63;5378064;26;68798;-31
2024/04/21 03:16:05;;;;;;;5.20;4.70;;;;;;;33.35;82.52;100881.88;5372274;26;63781;-32
2024/04/21 03:18:36;;;;;;;6.85;4.55;;;;;;;33.40;81.86;100867.53;5379849;26;67793;-32
2024/04/21 03:21:08;;;;;;;5.05;4.45;;;;;;;33.44;82.57;100870.63;5372554;26;64998;-33
2024/04/21 03:23:39;;;;;;;;;;;;;;;33.34;83.74;100874.75;5382766;26;67881;-31
2024/04/21 03:26:10;;;;;;;4.82;4.10;;;;;;;33.48;82.51;100869.91;5387491;26;65054;-29
2024/04/21 03:28:41;;;;;;;4.65;4.10;;;;;;;33.51;82.14;100869.44;5369860;26;68735;-31
2024/04/21 03:31:13;;;;;;;5.78;4.88;;;;;;;33.58;82.56;100858.47;5364492;26;65184;-32
2024/04/21 03:33:44;;;;;;;7.60;4.20;;;;;;;33.60;81.51;100856.34;5379520;26;69033;-31
2024/04/21 03:36:15;;;;;;;4.75;4.38;;;;;;;33.62;81.78;100856.91;5380647;26;64688;-32
2024/04/21 03:38:47;;;;;;;5.15;4.72;;;;;;;33.69;81.21;100859.50;5377220;26;68869;-31
2024/04/21 03:41:18;;;;;;;6.63;4.25;;;;;;;33.67;80.42;100848.84;5375266;26;64395;-34
2024/04/21 03:43:49;;;;;;;7.30;4.80;;;;;;;33.73;80.93;100845.16;5393600;26;69445;-32
2024/04/21 03:46:21;;;;;;;9.13;4.93;;;;;;;33.75;79.63;100832.16;5394230;26;65069;-31
2024/04/21 03:48:54;;;;;;;14.98;5.85;;;;;;;33.82;80.18;100837.44;5377002;26;67922;-32
2024/04/21 03:51:26;;;;;;;11.23;5.53;;;;;;;33.87;79.88;100839.47;5366675;26;66232;-31
2024/04/21 03:53:57;;;;;;;6.75;6.25;;;;;;;33.89;78.74;100829.16;5403075;26;68936;-31
2024/04/21 03:56:29;;;;;;;7.70;6.93;;;;;;;33.84;78.77;100820.91;5401342;26;64275;-32
2024/04/21 03:58:59;;;;;;;7.80;6.57;;;;;;;33.93;78.81;100833.03;5392785;26;69227;-33
2024/04/21 04:01:31;;;;;;;6.13;5.68;;;;;;;33.92;77.31;100826.78;5366001;26;64368;-34
2024/04/21 04:04:03;;;;;;;11.63;5.93;;;;;;;33.98;77.74;100814.09;5346991;26;68826;-33
2024/04/21 04:06:34;;;;;;;;;;;;;;;33.93;77.45;100811.28;5389602;26;64338;-32
2024/04/21 04:09:05;;;;;;;9.68;5.68;;;;;;;34.03;77.40;100806.03;5384049;26;68413;-35
2024/04/21 04:11:36;;;;;;;10.27;4.63;;;;;;;34.05;76.40;100803.94;5383844;26;65562;-31
2024/04/21 04:14:08;;;;;;;7.03;4.95;;;;;;;34.09;76.74;100788.75;5388949;26;68906;-31
2024/04/21 04:16:39;;;;;;;;;;;;;;;34.01;76.58;100787.22;5404574;26;65473;-32
2024/04/21 04:19:10;;;;;;;15.63;4.68;;;;;;;34.15;76.97;100776.06;5376472;26;68046;-31
2024/04/21 04:21:41;;;;;;;;;;;;;;;34.05;76.62;100787.59;5381114;26;65027;-31
2024/04/21 04:24:12;;;;;;;4.25;3.67;;;;;;;34.24;75.00;100780.88;5376471;26;69582;-32
2024/04/21 04:26:45;;;;;;;5.78;3.80;;;;;;;34.26;75.62;100773.25;5385954;26;65300;-32
2024/04/21 04:29:17;;;;;;;6.68;4.30;;;;;;;34.27;75.94;100763.22;5390774;26;68092;-34
2024/04/21 04:31:48;;;;;;;10.77;4.00;;;;;;;34.29;75.16;100754.78;5377544;26;64358;-32
2024/04/21 04:34:19;;;;;;;12.70;4.25;;;;;;;34.37;74.71;100751.66;5382220;26;68776;-32
2024/04/21 04:36:51;;;;;;;5.75;4.50;;;;;;;34.41;74.82;100744.66;5399141;26;65989;-34
2024/04/21 04:39:22;;;;;;;9.35;4.47;;;;;;;34.44;74.27;100744.97;5377998;26;67644;-31
2024/04/21 04:41:54;;;;;;;10.15;3.83;;;;;;;34.43;74.85;100739.75;5379869;26;65071;-35
2024/04/21 04:44:25;;;;;;;4.30;3.97;;;;;;;34.49;74.08;100730.59;5405535;26;70009;-31
2024/04/21 04:46:56;;;;;;;9.20;3.85;;;;;;;34.51;72.67;100733.91;5378302;26;64413;-31
2024/04/21 04:49:27;;;;;;;4.78;3.95;;;;;;;34.51;72.73;100731.19;5397564;26;68391;-33
2024/04/21 04:51:59;;;;;;;5.88;3.53;;;;;;;34.54;73.08;100724.41;5384417;26;65554;-32
2024/04/21 04:54:31;;;;;;;6.72;4.00;;;;;;;34.53;72.70;100720.88;5394654;26;66793;-32
2024/04/21 04:57:03;;;;;;;8.35;3.78;;;;;;;34.59;73.06;100711.72;5378999;26;65731;-31
2024/04/21 04:59:34;;;;;;;8.98;4.32;;;;;;;34.63;73.68;100702.00;5377881;26;68271;-33
2024/04/21 05:02:05;;;;;;;4.80;4.38;;;;;;;34.67;74.36;100696.88;5374069;26;64988;-31
2024/04/21 05:04:37;;;;;;;5.63;5.15;;;;;;;34.72;73.97;100687.94;5397540;26;68920;-34
2024/04/21 05:07:08;;;;;;;5.38;4.90;;;;;;;34.72;73.81;100677.88;5400409;26;65519;-32
2024/04/21 05:09:43;;;;;;;7.28;5.25;;;;;;;34.79;73.97;100673.03;5385213;26;68832;-32
2024/04/21 05:12:14;;;;;;;8.45;5.07;;;;;;;34.76;72.10;100664.56;5376192;26;65223;-32
2024/04/21 05:14:46;;;;;;;8.40;4.93;;;;;;;34.83;73.16;100662.47;5373163;26;69031;-32
2024/04/21 05:17:17;;;;;;;7.55;4.75;;;;;;;34.87;72.80;100658.16;5388303;26;64201;-33
2024/04/21 05:19:49;;;;;;;5.18;4.78;;;;;;;34.88;73.15;100657.06;5401701;26;68298;-32
2024/04/21 05:22:20;;;;;;;6.25;4.70;;;;;;;34.90;73.14;100652.19;5390037;26;64964;-30
2024/04/21 05:24:52;;;;;;;5.07;4.68;;;;;;;34.93;72.81;100629.88;5378809;26;69038;-32
2024/04/21 05:27:23;;;;;;;;;;;;;;;34.90;71.54;100652.19;5396171;26;64891;-31
2024/04/21 05:29:56;;;;;;;5.28;4.63;;;;;;;35.01;72.46;100632.16;5378105;26;67715;-32
2024/04/21 05:32:28;;;;;;;4.93;4.25;;;;;;;35.06;72.57;100629.53;5398031;26;64470;-31
2024/04/21 05:34:59;;;;;;;4.38;4.07;;;;;;;35.08;72.10;100632.84;5391473;26;68739;-32
2024/04/21 05:37:30;;;;;;;10.43;4.63;;;;;;;34.97;71.21;100601.06;5379953;26;64694;-34
2024/04/21 05:40:02;;;;;;;;;;;;;;;35.06;70.43;100620.53;5396439;26;68974;-32
2024/04/21 05:42:33;;;;;;;6.22;4.00;;;;;;;35.14;70.57;100609.19;5375435;26;66756;-34
2024/04/21 05:45:05;;;;;;;3.88;3.53;;;;;;;35.19;70.04;100613.84;5360624;26;69551;-34
2024/04/21 05:47:38;;;;;;;4.25;3.97;;;;;;;35.20;70.24;100599.97;5329120;26;65012;-33
2024/04/21 05:50:10;;;;;;;5.60;3.97;;;;;;;35.28;69.88;100599.50;5375714;26;68640;-35
2024/04/21 05:52:42;;;;;;;3.70;3.40;;;;;;;35.27;69.15;100594.31;5350595;26;64921;-35
2024/04/21 05:55:14;;;;;;;3.95;3.72;;;;;;;35.32;70.18;100589.72;5315264;26;68893;-31
2024/04/21 05:57:45;;;;;;;;;;;;;;;35.29;68.90;100583.97;5380644;26;64687;-31
2024/04/21 06:00:17;;;;;;;5.43;3.63;;;;;;;35.43;68.63;100579.75;5373124;26;68230;-32
2024/04/21 06:02:49;;;;;;;5.90;3.08;;;;;;;35.51;68.40;100571.09;5375735;26;64299;-34
2024/04/21 06:05:20;;;;;;;3.67;3.38;;;;;;;35.53;68.51;100576.28;5378451;26;68923;-35
2024/04/21 06:07:52;;;;;;;3.63;3.33;;;;;;;35.54;68.42;100559.66;5376982;26;65045;-31
2024/04/21 06:10:24;;;;;;;8.88;3.65;;;;;;;35.64;68.33;100560.88;5381279;26;68549;-31
2024/04/21 06:12:56;;;;;;;4.10;3.80;;;;;;;35.64;68.27;100558.16;5387402;26;64864;-32
2024/04/21 06:15:28;;;;;;;3.85;3.50;;;;;;;35.70;68.02;100546.19;5390061;26;68712;-31
2024/04/21 06:18:00;;;;;;;5.70;3.88;;;;;;;35.72;67.83;100544.03;5394053;26;65460;-31
2024/04/21 06:20:35;;;;;;;3.97;3.67;;;;;;;35.78;67.18;100545.69;5382364;26;68191;-31
2024/04/21 06:23:08;;;;;;;2.92;2.67;;;;;;;35.78;67.10;100548.44;5383434;26;64218;-32
2024/04/21 06:25:40;;;;;;;4.90;3.70;;;;;;;35.81;66.06;100531.53;5378568;26;67277;-34
2024/04/21 06:28:12;;;;;;;4.20;3.47;;;;;;;35.93;67.28;100526.69;5380324;26;66339;-33
2024/04/21 06:30:44;;;;;;;9.60;4.32;;;;;;;36.00;67.30;100529.19;5405714;26;67981;-32
2024/04/21 06:33:16;;;;;;;3.75;3.45;;;;;;;36.03;66.00;100531.41;5392905;26;65390;-33
2024/04/21 06:35:49;;;;;;;9.85;3.53;;;;;;;36.05;66.29;100528.38;5380366;26;67909;-30
2024/04/21 06:38:21;;;;;;;3.80;3.50;;;;;;;36.11;67.52;100524.63;5384033;26;65878;-32
2024/04/21 06:40:53;;;;;;;6.65;3.75;;;;;;;36.05;66.73;100510.13;5383438;26;68833;-31
2024/04/21 06:43:25;;;;;;;7.57;2.90;;;;;;;35.99;65.66;100509.25;5403485;26;64144;-34
2024/04/21 06:45:56;;;;;;;9.48;2.90;;;;;;;35.90;65.26;100489.00;5379168;26;68685;-32
2024/04/21 06:48:28;;;;;;;6.45;3.20;;;;;;;35.86;64.43;100487.91;5379312;26;65089;-31
2024/04/21 06:51:00;;;;;;;7.53;2.85;;;;;;;35.66;62.23;100479.56;5376405;26;68680;-31
2024/04/21 06:53:32;;;;;;;13.70;3.33;;;;;;;35.63;62.67;100491.00;5377779;26;64760;-31
2024/04/21 06:56:05;;;;;;;4.05;2.63;;;;;;;35.68;62.22;100482.84;5384575;26;69098;-31
2024/04/21 06:58:36;;;;;;;12.20;2.65;;;;;;;35.57;61.37;100471.06;5381488;26;65768;-31
2024/04/21 07:01:09;;;;;;;13.32;3.22;;;;;;;35.50;60.33;100471.25;5379842;26;68021;-30
2024/04/21 07:03:41;;;;;;;12.13;2.60;;;;;;;35.39;60.57;100461.34;5380080;26;65187;-29
2024/04/21 07:06:13;;;;;;;9.35;2.78;;;;;;;35.44;59.73;100461.41;5379976;26;69004;-31
2024/04/21 07:08:44;;;;;;;5.90;2.85;;;;;;;35.41;59.27;100455.63;5368274;26;65138;-31
2024/04/21 07:11:16;;;;;;;5.22;2.40;;;;;;;35.48;60.44;100445.31;5379105;26;68217;-30
2024/04/21 07:13:48;;;;;;;7.07;2.63;;;;;;;35.35;59.77;100446.59;5382173;26;65305;-29
2024/04/21 07:16:35;;;;;;;8.95;2.45;;;;;;;35.36;59.55;100438.16;5382431;26;68535;-31
2024/04/21 07:19:07;;;;;;;4.18;2.40;;;;;;;35.33;58.88;100443.31;5379667;26;64715;-29
2024/04/21 07:21:39;;;;;;;3.50;2.58;;;;;;;35.25;58.63;100430.16;5377243;26;68351;-29
2024/04/21 07:24:10;;;;;;;2.72;2.17;;;;;;;35.32;59.57;100434.28;5390010;26;65149;-30
2024/04/21 07:26:44;;;;;;;6.65;2.42;;;;;;;35.32;59.51;100414.38;5387109;26;67582;-30
2024/04/21 07:29:15;;;;;;;11.57;2.33;;;;;;;35.23;58.12;100415.97;5380363;26;65031;-33
2024/04/21 07:31:47;;;;;;;1.90;1.70;;;;;;;35.30;59.35;100422.84;5376031;26;69039;-34
2024/04/21 07:34:19;;;;;;;5.30;1.90;;;;;;;35.36;58.67;100410.06;5385143;26;63891;-33
2024/04/21 07:36:50;;;;;;;2.38;2.17;;;;;;;35.38;58.08;100416.06;5389393;26;69327;-31
2024/04/21 07:39:22;;;;;;;4.90;1.73;;;;;;;35.28;58.73;100407.81;5366859;26;64766;-31
2024/04/21 07:41:54;;;;;;;3.25;1.92;;;;;;;35.37;58.96;100406.25;5361677;26;69656;-32
2024/04/21 07:44:26;;;;;;;4.60;2.15;;;;;;;35.35;57.79;100398.34;5378419;26;65065;-34
2024/04/21 07:46:58;;;;;;;2.65;1.90;;;;;;;35.43;58.11;100399.72;5380813;26;69091;-34
2024/04/21 07:49:30;;;;;;;7.55;2.00;;;;;;;35.44;58.25;100401.41;5386421;26;65516;-31
2024/04/21 07:52:02;;;;;;;1.98;1.80;;;;;;;35.39;58.44;100398.63;5414690;26;68793;-34
2024/04/21 07:54:34;;;;;;;2.22;2.13;;;;;;;35.38;57.46;100394.25;5397419;26;64612;-31
2024/04/21 07:57:08;;;;;;;2.00;1.80;;;;;;;35.34;57.20;100390.41;5390549;26;68911;-34
2024/04/21 07:59:40;;;;;;;6.32;1.70;;;;;;;35.34;57.86;100387.69;5388331;26;65538;-32
2024/04/21 08:02:11;;;;;;;6.25;1.90;;;;;;;35.35;57.18;100394.78;5358145;26;68869;-31
2024/04/21 08:04:43;;;;;;;2.30;1.55;;;;;;;35.32;57.41;100382.47;5403988;26;64128;-32
2024/04/21 08:07:15;;;;;;;8.38;2.00;;;;;;;35.42;57.60;100387.19;5379872;26;67784;-32
2024/04/21 08:09:47;;;;;;;1.70;1.60;;;;;;;35.48;57.63;100386.13;5378530;26;65282;-31
2024/04/21 08:12:21;;;;;;;5.03;1.60;;;;;;;35.43;56.66;100380.63;5378887;26;69177;-31
2024/04/21 08:14:52;;;;;;;1.90;1.80;;;;;;;35.43;57.49;100377.91;5380168;26;65233;-31
2024/04/21 08:17:25;;;;;;;2.00;1.83;;;;;;;35.39;57.66;100376.81;5381285;26;68697;-31
2024/04/21 08:19:56;;;;;;;2.00;1.80;;;;;;;35.35;56.70;100381.13;5377487;26;64332;-31
2024/04/21 08:22:28;;;;;;;1.77;1.60;;;;;;;35.30;56.67;100381.94;5378376;26;69061;-29
2024/04/21 08:25:01;;;;;;;3.42;2.05;;;;;;;35.34;57.41;100380.31;5364370;26;64143;-32
2024/04/21 08:27:35;;;;;;;1.08;0.95;;;;;;;35.34;56.89;100376.78;5372963;26;68970;-31
2024/04/21 08:30:07;;;;;;;1.33;1.23;;;;;;;35.27;56.51;100373.44;5370006;26;65802;-32
2024/04/21 08:32:39;;;;;;;3.28;1.83;;;;;;;35.33;57.35;100377.88;5369174;26;68681;-31
2024/04/21 08:35:11;;;;;;;2.05;1.95;;;;;;;35.34;56.89;100374.06;5392360;26;65069;-31
2024/04/21 08:37:43;;;;;;;2.10;1.90;;;;;;;35.25;56.92;100372.91;5377304;26;67835;-33
2024/04/21 08:40:15;;;;;;;2.13;1.55;;;;;;;35.29;57.14;100360.38;5379115;26;64381;-30
2024/04/21 08:42:51;;;;;;;5.38;1.63;;;;;;;35.19;56.91;100349.41;5381174;26;68823;-30
2024/04/21 08:45:25;;;;;;;1.98;1.88;;;;;;;35.25;57.29;100364.72;5383324;26;64261;-31
2024/04/21 08:47:57;;;;;;;4.90;1.85;;;;;;;35.24;57.17;100373.97;5370022;26;69305;-30
2024/04/21 08:50:30;;;;;;;3.22;1.70;;;;;;;35.17;56.25;100346.13;5363853;26;65500;-29
2024/04/21 08:53:03;;;;;;;3.05;1.88;;;;;;;35.23;57.50;100364.16;5379058;26;68003;-29
2024/04/21 08:55:38;;;;;;;3.00;2.30;;;;;;;35.15;57.59;100357.28;5370236;26;65198;-29
2024/04/21 08:58:12;;;;;;;11.68;2.42;;;;;;;35.10;57.81;100357.25;5374755;26;68774;-30
2024/04/21 09:00:46;;;;;;;9.40;2.40;;;;;;;35.11;56.77;100365.16;5377164;26;65010;-28
2024/04/21 09:03:19;;;;;;;4.45;2.28;;;;;;;35.12;56.68;100361.34;5381332;26;68312;-30
2024/04/21 09:05:52;;;;;;;3.25;2.35;;;;;;;35.17;58.05;100357.84;5394308;26;64228;-30
2024/04/21 09:08:24;;;;;;;8.00;2.45;;;;;;;35.13;58.17;100368.47;5392470;26;69146;-33
2024/04/21 09:10:57;;;;;;;5.82;2.38;;;;;;;35.02;57.26;100366.72;5391383;26;64009;-31
2024/04/21 09:13:29;;;;;;;7.38;2.08;;;;;;;35.05;57.14;100370.81;5375204;26;68656;-33
2024/04/21 09:16:03;;;;;;;6.07;2.00;;;;;;;34.92;57.58;100344.81;5377379;26;66189;-33
2024/04/21 09:18:36;;;;;;;6.35;2.20;;;;;;;35.02;57.94;100372.16;5380889;26;69117;-32
2024/04/21 09:21:07;;;;;;;15.50;3.38;;;;;;;35.06;57.74;100376.03;5374178;26;65870;-31
2024/04/21 09:23:40;;;;;;;16.52;2.80;;;;;;;35.06;58.16;100372.50;5389517;26;69044;-30
2024/04/21 09:26:12;;;;;;;10.05;3.33;;;;;;;35.10;59.89;100365.41;5387325;26;66753;-30
2024/04/21 09:28:47;;;;;;;8.88;3.65;;;;;;;35.25;61.07;100370.19;5383773;26;68833;-31
2024/04/21 09:31:19;;;;;;;9.27;2.90;;;;;;;35.35;61.71;100370.22;5383354;26;65639;-31
2024/04/21 09:33:53;;;;;;;7.35;2.90;;;;;;;35.48;61.71;100368.94;5400043;26;68481;-33
2024/04/21 09:36:25;;;;;;;11.98;3.28;;;;;;;35.56;62.52;100369.31;5383639;26;65163;-29
2024/04/21 09:39:01;;;;;;;8.02;3.22;;;;;;;35.64;63.61;100378.09;5385157;26;69340;-33
2024/04/21 09:41:37;;;;;;;11.93;3.70;;;;;;;35.69;63.26;100376.19;5407218;26;65320;-30
2024/04/21 09:44:11;;;;;;;3.63;2.78;;;;;;;35.55;63.58;100343.09;5370453;26;68749;-31
2024/04/21 09:46:44;;;;;;;11.93;3.33;;;;;;;35.80;63.73;100377.03;5377984;26;66323;-37
2024/04/21 09:49:18;;;;;;;2.85;2.60;;;;;;;35.56;63.90;100344.75;5388705;26;68247;-31
2024/04/21 09:51:50;;;;;;;5.88;3.40;;;;;;;35.76;63.79;100365.84;5394818;26;64247;-31
2024/04/21 09:54:25;;;;;;;10.15;3.55;;;;;;;35.58;64.00;100341.78;5381612;26;69520;-31
2024/04/21 09:57:17;;;;;;;6.15;3.78;;;;;;;35.78;63.81;100374.59;5380255;26;65387;-31
2024/04/21 10:00:01;;;;;;;3.22;3.03;;;;;;;35.86;63.72;100370.53;5395117;26;69335;-32
2024/04/21 10:02:48;;;;;;;8.98;3.35;;;;;;;35.75;63.07;100347.84;5379998;26;64631;-35
2024/04/21 10:05:25;;;;;;;3.40;3.10;;;;;;;35.94;64.09;100375.50;5378710;26;68780;-31
2024/04/21 10:08:00;;;;;;;3.25;2.95;;;;;;;36.02;63.99;100371.41;5376245;26;65017;-33
2024/04/21 10:10:36;;;;;;;3.05;2.70;;;;;;;36.05;63.71;100375.50;5377687;26;68070;-33
2024/04/21 10:13:09;;;;;;;5.43;3.20;;;;;;;36.05;64.18;100372.78;5386969;26;65098;-32
2024/04/21 10:15:42;;;;;;;4.07;2.80;;;;;;;36.11;63.91;100378.03;5382786;26;68607;-31
2024/04/21 10:18:23;;;;;;;3.97;2.70;;;;;;;35.95;63.66;100355.28;5397656;26;65524;-32
2024/04/21 10:20:56;;;;;;;6.03;2.53;;;;;;;36.11;64.08;100380.75;5374509;26;68699;-31
2024/04/21 10:23:28;;;;;;;3.28;3.00;;;;;;;36.12;63.72;100385.13;5388762;26;64587;-30
2024/04/21 10:26:00;;;;;;;7.40;2.78;;;;;;;36.14;63.95;100387.59;5375702;26;67767;-31
2024/04/21 10:28:32;;;;;;;2.97;2.78;;;;;;;36.15;63.63;100390.03;5380758;26;66404;-30
2024/04/21 10:31:09;;;;;;;4.05;2.85;;;;;;;36.15;63.97;100383.78;5388536;26;67844;-31
2024/04/21 10:33:41;;;;;;;5.43;2.63;;;;;;;36.16;64.11;100391.72;5382471;26;65005;-30
2024/04/21 10:36:22;;;;;;;5.45;2.58;;;;;;;36.14;64.06;100399.34;5397907;26;69317;-32
2024/04/21 10:38:54;;;;;;;2.97;2.77;;;;;;;36.17;63.87;100393.34;5380901;26;65302;-32
2024/04/21 10:41:31;;;;;;;2.90;2.70;;;;;;;36.09;63.89;100382.13;5386864;26;68477;-30
2024/04/21 10:44:03;;;;;;;3.25;3.05;;;;;;;36.17;64.21;100403.44;5377652;26;64456;-32
2024/04/21 10:46:36;;;;;;;2.97;2.78;;;;;;;36.13;64.03;100394.94;5382576;26;69760;-31
2024/04/21 10:49:08;;;;;;;4.32;3.30;;;;;;;36.16;64.31;100407.25;5379719;26;65788;-32
2024/04/21 10:51:41;;;;;;;4.72;3.15;;;;;;;36.13;64.55;100400.41;5373121;26;69092;-32
2024/04/21 10:54:13;;;;;;;3.58;3.28;;;;;;;36.15;64.76;100400.16;5386846;26;65356;-32
2024/04/21 10:56:45;;;;;;;3.20;2.88;;;;;;;36.12;64.33;100392.50;5384544;26;68615;-30
2024/04/21 10:59:17;;;;;;;4.25;3.13;;;;;;;36.11;64.91;100401.75;5388675;26;65094;-31
2024/04/21 11:01:48;;;;;;;4.68;3.53;;;;;;;36.11;64.45;100407.22;5383246;26;68516;-30
2024/04/21 11:04:26;;;;;;;3.17;2.97;;;;;;;36.10;65.27;100413.78;5383224;26;65101;-29
2024/04/21 11:06:58;;;;;;;3.95;3.20;;;;;;;36.09;64.80;100414.88;5381149;26;68956;-30
2024/04/21 11:09:31;;;;;;;3.22;3.03;;;;;;;36.07;64.48;100419.78;5373890;26;64538;-32
2024/04/21 11:12:03;;;;;;;3.47;2.70;;;;;;;36.03;65.48;100412.09;5380164;26;67902;-31
2024/04/21 11:14:35;;;;;;;3.17;2.97;;;;;;;36.08;65.35;100424.97;5388091;26;64477;-31
2024/04/21 11:17:07;;;;;;;3.35;3.15;;;;;;;36.07;65.19;100419.78;5393676;26;68718;-31
2024/04/21 11:19:38;;;;;;;3.55;3.35;;;;;;;36.03;65.56;100420.28;5377846;26;64048;-34
2024/04/21 11:22:12;;;;;;;4.68;3.30;;;;;;;35.91;65.49;100406.03;5398740;26;68879;-32
2024/04/21 11:24:46;;;;;;;3.25;3.05;;;;;;;36.05;65.63;100427.38;5392535;26;65133;-31
2024/04/21 11:27:18;;;;;;;3.95;3.65;;;;;;;36.02;65.38;100428.72;5387255;26;68901;-31
2024/04/21 11:29:50;;;;;;;4.22;3.60;;;;;;;36.03;65.98;100439.41;5387238;26;64983;-32
2024/04/21 11:32:22;;;;;;;3.42;3.17;;;;;;;36.03;65.67;100431.19;5388399;26;68043;-31
2024/04/21 11:34:54;;;;;;;3.17;2.88;;;;;;;36.00;66.03;100437.19;5383369;26;65317;-31
2024/04/21 11:37:26;;;;;;;3.67;3.38;;;;;;;35.96;65.90;100435.25;5380677;26;68843;-30
2024/04/21 11:39:58;;;;;;;3.40;3.13;;;;;;;36.01;65.85;100449.75;5378020;26;65382;-32
2024/04/21 11:42:30;;;;;;;3.97;3.45;;;;;;;35.98;66.85;100450.28;5386186;26;67869;-31
2024/04/21 11:45:02;;;;;;;3.90;3.60;;;;;;;35.99;66.63;100451.91;5374118;26;65890;-31
2024/04/21 11:47:33;;;;;;;5.43;3.75;;;;;;;35.96;67.23;100457.09;5391264;26;68030;-34
2024/04/21 11:50:05;;;;;;;4.80;3.97;;;;;;;35.92;67.11;100462.28;5381588;26;65122;-32